createdAt,value
2022-11-24T01:03:51.105Z,99584.56
2022-11-24T01:06:24.195Z,99584.38
2022-11-24T01:09:13.000Z,99586.48
2022-11-24T01:12:01.199Z,99588.35
2022-11-24T01:21:42.601Z,99593.73
2022-11-24T01:24:14.654Z,99590.42
2022-11-24T01:26:47.776Z,99588.55
2022-11-24T01:29:26.269Z,99585.25
2022-11-24T01:31:58.684Z,99590.77
2022-11-24T01:34:29.734Z,99595.78
2022-11-24T01:37:01.090Z,99596.13
2022-11-24T01:39:32.194Z,99598.86
2022-11-24T01:42:08.378Z,99594.56
2022-11-24T01:44:39.025Z,99593.70
2022-11-24T01:47:28.630Z,99600.77
2022-11-24T01:50:04.140Z,99601.30
2022-11-24T01:52:42.574Z,99602.15
2022-11-24T01:55:19.024Z,99605.09
2022-11-24T01:57:55.450Z,99602.49
2022-11-24T02:00:26.728Z,99600.75
2022-11-24T02:02:59.326Z,99600.88
2022-11-24T02:05:36.609Z,99605.48
2022-11-24T02:08:16.123Z,99604.41
2022-11-24T02:10:48.951Z,99599.56
2022-11-24T02:13:20.803Z,99594.71
2022-11-24T02:15:52.211Z,99599.48
2022-11-24T02:18:29.683Z,99601.23
2022-11-24T02:21:02.192Z,99603.95
2022-11-24T02:23:40.352Z,99599.45
2022-11-24T02:26:19.809Z,99602.17
2022-11-24T02:28:52.301Z,99597.63
2022-11-24T02:31:23.092Z,99596.04
2022-11-24T02:33:56.459Z,99598.41
2022-11-24T02:36:29.645Z,99595.27
2022-11-24T02:40:31.978Z,99588.58
2022-11-24T02:43:12.650Z,99590.04
2022-11-24T02:45:41.134Z,99588.83
2022-11-24T02:48:09.148Z,99589.66
2022-11-24T02:50:38.740Z,99592.45
2022-11-24T02:53:06.917Z,99594.82
2022-11-24T02:55:38.578Z,99596.30
2022-11-24T02:58:09.202Z,99601.98
2022-11-24T03:00:39.132Z,99599.92
2022-11-24T03:03:16.723Z,99602.73
2022-11-24T03:05:48.594Z,99609.29
2022-11-24T03:08:17.367Z,99608.30
2022-11-24T03:10:49.396Z,99613.66
2022-11-24T03:13:19.025Z,99614.84
2022-11-24T03:15:47.384Z,99613.95
2022-11-24T03:18:19.331Z,99618.26
2022-11-24T03:20:58.738Z,99620.15
2022-11-24T03:23:27.026Z,99620.30
2022-11-24T03:25:54.841Z,99625.27
2022-11-24T03:28:23.064Z,99628.73
2022-11-24T03:30:51.195Z,99624.59
2022-11-24T03:33:19.062Z,99626.70
2022-11-24T03:35:48.439Z,99626.92
2022-11-24T03:38:16.718Z,99626.95
2022-11-24T03:40:44.825Z,99631.48
2022-11-24T03:43:13.141Z,99629.27
2022-11-24T03:45:46.345Z,99634.27
2022-11-24T03:48:15.292Z,99637.07
2022-11-24T03:50:53.315Z,99635.88
2022-11-24T03:53:28.597Z,99634.88
2022-11-24T03:55:56.520Z,99637.79
2022-11-24T03:58:24.872Z,99633.48
2022-11-24T04:00:54.597Z,99626.63
2022-11-24T04:03:24.121Z,99625.42
2022-11-24T04:06:02.019Z,99631.45
2022-11-24T04:08:30.548Z,99630.04
2022-11-24T04:10:59.350Z,99627.13
2022-11-24T04:13:30.054Z,99624.73
2022-11-24T04:16:07.230Z,99623.70
2022-11-24T04:18:35.687Z,99629.89
2022-11-24T04:21:04.731Z,99634.71
2022-11-24T04:23:33.324Z,99627.83
2022-11-24T04:28:45.498Z,99628.88
2022-11-24T04:31:17.503Z,99627.11
2022-11-24T04:33:50.023Z,99635.75
2022-11-24T04:36:20.768Z,99631.48
2022-11-24T04:39:19.642Z,99635.31
2022-11-24T04:41:45.076Z,99638.92
2022-11-24T04:44:15.627Z,99648.54
2022-11-24T04:46:47.459Z,99649.07
